Velserdijk — PBIC — position and weather

sailwx.info

Track history (hours):
 
Tides and Currents Weather Stations Pressure Air Temp Water Temp Dewpoint Dewpoint Depression Visibility Wind Speed Wind Dir Waves Ship Positions

Velserdijk

Last reported at 2017-Nov-16 06:44 UTC. Time now 2017-Nov-19 05:04 UTC.
Position N 49°53' W 003°11'.

; draft 6.2 m.

Type: Cargo ship. MMSI: 244865000.

Date/timePositionNaut miles runAvg speedWind from/ knotsBaromVisibWave heightAir tempDewpointWater temp
2017-Nov-16 06:44N 49°53' W 003°11'7 8.5
2017-Nov-16 05:56N 49°57' W 003°02'4 8.2
2017-Nov-16 05:30N 49°59' W 002°58'4 8.1
2017-Nov-16 05:00N 50°01' W 002°52'4 8.3
2017-Nov-16 04:30N 50°02' W 002°46'4010.6
2017-Nov-16 00:41N 50°13' W 001°45'212.9
2017-Nov-16 00:30N 50°14' W 001°41'812.9
2017-Nov-15 23:51N 50°16' W 001°29'4610.5
2017-Nov-15 19:26N 50°29' W 000°19'7 8.2
2017-Nov-15 18:38N 50°30' W 000°09'1 8.3
2017-Nov-15 18:30N 50°31' W 000°08'4 8.4
2017-Nov-15 18:00N 50°32' W 000°01'4 8.5
2017-Nov-15 17:30N 50°33' E 000°05'4 8.8
2017-Nov-15 17:00N 50°34' E 000°12'5 9.4
2017-Nov-15 16:30N 50°36' E 000°19'510.1
2017-Nov-15 16:00N 50°37' E 000°27'510.6
2017-Nov-15 15:30N 50°39' E 000°35'611.1
2017-Nov-15 15:00N 50°42' E 000°42'611.2
2017-Nov-15 14:30N 50°45' E 000°49'2110.3
2017-Nov-15 12:30N 50°58' E 001°15'10 8.7
2017-Nov-15 11:22N 51°04' E 001°27'3 8.0
2017-Nov-15 10:57N 51°06' E 001°30'3 7.4
2017-Nov-15 10:30N 51°09' E 001°34'4 7.6
2017-Nov-15 10:00N 51°11' E 001°39'4 8.0
2017-Nov-15 09:30N 51°13' E 001°44'4 8.8
2017-Nov-15 09:00N 51°17' E 001°48'5 9.6
2017-Nov-15 08:30N 51°21' E 001°52'510.4
2017-Nov-15 08:00N 51°26' E 001°56'611.1
2017-Nov-15 07:30N 51°30' E 002°03'611.4
2017-Nov-15 07:00N 51°34' E 002°09'611.4
2017-Nov-15 06:28N 51°38' E 002°15'58 9.7
2017-Nov-15 00:31N 52°03' E 003°40'1 8.5
2017-Nov-15 00:25N 52°03' E 003°41'3 8.2
2017-Nov-15 00:00N 52°03' E 003°47'4 8.2
2017-Nov-14 23:30N 52°03' E 003°54'4 7.1
2017-Nov-14 23:00N 52°01' E 003°58'4 9.0
2017-Nov-14 22:30N 51°59' E 004°05'5 9.2
2017-Nov-14 22:00N 51°57' E 004°11'5 9.6
2017-Nov-14 21:30N 51°54' E 004°18'4 8.5
2017-Nov-14 21:00N 51°53' E 004°24'0 0.6
2017-Nov-14 20:30N 51°53' E 004°25'0 0.0
2017-Nov-14 20:00N 51°53' E 004°25'0 0.0
2017-Nov-14 19:30N 51°53' E 004°25'0 0.0
2017-Nov-14 19:00N 51°53' E 004°25'0 0.0
2017-Nov-14 18:30N 51°53' E 004°25'0 0.0
2017-Nov-14 18:00N 51°53' E 004°25'0 0.0
2017-Nov-14 17:30N 51°53' E 004°25'0 0.0
2017-Nov-14 17:00N 51°53' E 004°25'0 0.0
2017-Nov-14 16:30N 51°53' E 004°25'0 0.0
2017-Nov-14 16:00N 51°53' E 004°25'0 0.0
2017-Nov-14 15:30N 51°53' E 004°25'0 0.0
2017-Nov-14 15:00N 51°53' E 004°25'0 0.0
2017-Nov-14 14:30N 51°53' E 004°25'0 0.0
2017-Nov-14 14:00N 51°53' E 004°25'0 0.0
2017-Nov-14 13:30N 51°53' E 004°25'0 0.0
2017-Nov-14 13:00N 51°53' E 004°25'0 0.0
2017-Nov-14 12:30N 51°53' E 004°25'0 0.0
2017-Nov-14 12:00N 51°53' E 004°25'0 0.0
2017-Nov-14 11:30N 51°53' E 004°25'0 0.0
2017-Nov-14 11:00N 51°53' E 004°25'0 0.0
2017-Nov-14 10:30N 51°53' E 004°25'0 0.0
2017-Nov-14 10:00N 51°53' E 004°25'0 0.0
2017-Nov-14 09:30N 51°53' E 004°25'0 0.0
2017-Nov-14 09:00N 51°53' E 004°25'0 0.0
2017-Nov-14 08:30N 51°53' E 004°25'0 0.0
2017-Nov-14 08:00N 51°53' E 004°25'0 0.0
2017-Nov-14 07:30N 51°53' E 004°25'0 0.0
2017-Nov-14 07:00N 51°53' E 004°25'0 0.0
2017-Nov-14 06:30N 51°53' E 004°25'0 0.0
2017-Nov-14 06:00N 51°53' E 004°25'0 0.0
2017-Nov-14 05:30N 51°53' E 004°25'0 0.0
2017-Nov-14 05:00N 51°53' E 004°25'0 0.0
2017-Nov-14 04:30N 51°53' E 004°25'0 0.0
2017-Nov-14 04:00N 51°53' E 004°25'0 0.0
2017-Nov-14 03:30N 51°53' E 004°25'0 0.0
2017-Nov-14 03:00N 51°53' E 004°25'0 0.0
2017-Nov-14 02:30N 51°53' E 004°25'0 0.0
2017-Nov-14 02:00N 51°53' E 004°25'0 0.0
2017-Nov-14 01:30N 51°53' E 004°25'0 0.0
2017-Nov-14 01:00N 51°53' E 004°25'0 0.0
2017-Nov-14 00:30N 51°53' E 004°25'0 0.0
2017-Nov-14 00:00N 51°53' E 004°25'0 0.0
2017-Nov-13 23:30N 51°53' E 004°25'0 0.0
2017-Nov-13 23:00N 51°53' E 004°25'0 0.0
2017-Nov-13 22:30N 51°53' E 004°25'0 0.0
2017-Nov-13 22:00N 51°53' E 004°25'0 0.0
2017-Nov-13 02:00N 51°53' E 004°25'0 0.0
2017-Nov-13 01:30N 51°53' E 004°25'0 0.0
2017-Nov-13 01:00N 51°53' E 004°25'0 0.0
2017-Nov-13 00:30N 51°53' E 004°25'0 0.0
2017-Nov-13 00:00N 51°53' E 004°25'0 0.0
2017-Nov-12 23:30N 51°53' E 004°25'0 0.0
2017-Nov-12 23:00N 51°53' E 004°25'1 2.4
2017-Nov-12 22:30N 51°54' E 004°25'2 4.0
2017-Nov-12 22:00N 51°54' E 004°28'0 0.0
2017-Nov-12 21:30N 51°54' E 004°28'0 0.0
2017-Nov-12 21:00N 51°54' E 004°28'0 0.0
2017-Nov-12 20:31N 51°54' E 004°28'0 0.0
2017-Nov-12 20:01N 51°54' E 004°28'0 0.0
2017-Nov-12 19:31N 51°54' E 004°28'0 0.0
2017-Nov-12 19:01N 51°54' E 004°28'0 0.0
2017-Nov-12 18:31N 51°54' E 004°28'0 0.0
2017-Nov-12 18:01N 51°54' E 004°28'0 0.0
2017-Nov-12 17:31N 51°54' E 004°28'0 0.0
2017-Nov-12 17:00N 51°54' E 004°28'0 0.0
2017-Nov-12 16:30N 51°54' E 004°28'0 0.0
2017-Nov-12 16:01N 51°54' E 004°28'0 0.0
2017-Nov-12 15:31N 51°54' E 004°28'0 0.0
2017-Nov-12 15:01N 51°54' E 004°28'0 0.0
2017-Nov-12 14:30N 51°54' E 004°28'0 0.0
2017-Nov-12 14:00N 51°54' E 004°28'0 0.0
2017-Nov-12 13:30N 51°54' E 004°28'0 0.0
2017-Nov-12 13:00N 51°54' E 004°28'0 0.0
2017-Nov-12 12:30N 51°54' E 004°28'0 0.0
2017-Nov-12 12:01N 51°54' E 004°28'0 0.0
2017-Nov-12 11:30N 51°54' E 004°28'0 0.0
2017-Nov-12 11:00N 51°54' E 004°28'0 0.0
2017-Nov-12 10:31N 51°54' E 004°28'0 0.0
2017-Nov-12 10:01N 51°54' E 004°28'0 0.0
2017-Nov-12 09:31N 51°54' E 004°28'0 0.0
2017-Nov-12 09:01N 51°54' E 004°28'0 0.0
2017-Nov-12 08:31N 51°54' E 004°28'0 0.0
2017-Nov-12 08:01N 51°54' E 004°28'0 0.0
2017-Nov-12 07:30N 51°54' E 004°28'0 0.0
2017-Nov-12 07:01N 51°54' E 004°28'0 0.0
2017-Nov-12 06:30N 51°54' E 004°28'0 0.0
2017-Nov-12 06:01N 51°54' E 004°28'0 0.0
2017-Nov-12 05:30N 51°54' E 004°28'0 0.0
2017-Nov-12 05:01N 51°54' E 004°28'0 0.0
2017-Nov-12 04:31N 51°54' E 004°28'0 0.0
2017-Nov-12 04:01N 51°54' E 004°28'0 0.0
2017-Nov-12 03:30N 51°54' E 004°28'0 0.0
2017-Nov-12 03:01N 51°54' E 004°28'0 0.0
2017-Nov-12 02:30N 51°54' E 004°28'0 0.0
2017-Nov-12 02:01N 51°54' E 004°28'0 0.0
2017-Nov-12 01:30N 51°54' E 004°28'0 0.0
2017-Nov-12 01:00N 51°54' E 004°28'0 0.0
2017-Nov-12 00:31N 51°54' E 004°28'0 0.0
2017-Nov-12 00:01N 51°54' E 004°28'0 0.0
2017-Nov-11 23:30N 51°54' E 004°28'0 0.0
2017-Nov-11 23:01N 51°54' E 004°28'0 0.0
2017-Nov-11 22:31N 51°54' E 004°28'0 0.0
2017-Nov-11 22:01N 51°54' E 004°28'0 0.0
2017-Nov-11 21:31N 51°54' E 004°28'0 0.0
2017-Nov-11 21:00N 51°54' E 004°28'0 0.0
2017-Nov-11 20:31N 51°54' E 004°28'0 0.0
2017-Nov-11 20:00N 51°54' E 004°28'0 0.0
2017-Nov-11 19:30N 51°54' E 004°28'0 0.0
2017-Nov-11 19:01N 51°54' E 004°28'0 0.0
2017-Nov-11 18:30N 51°54' E 004°28'0 0.0
2017-Nov-11 18:01N 51°54' E 004°28'0 0.0
2017-Nov-11 17:31N 51°54' E 004°28'0 0.0
2017-Nov-11 17:01N 51°54' E 004°28'0 0.0
2017-Nov-11 16:30N 51°54' E 004°28'0 0.0
2017-Nov-11 16:00N 51°54' E 004°28'0 0.0
2017-Nov-11 15:31N 51°54' E 004°28'0 0.0
2017-Nov-11 15:00N 51°54' E 004°28'0 0.0
2017-Nov-11 14:30N 51°54' E 004°28'0 0.0
2017-Nov-11 14:01N 51°54' E 004°28'0 0.0
2017-Nov-11 13:31N 51°54' E 004°28'0 0.0
2017-Nov-11 13:01N 51°54' E 004°28'0 0.0
2017-Nov-11 12:30N 51°54' E 004°28'0 0.0
2017-Nov-11 12:01N 51°54' E 004°28'0 0.0
2017-Nov-11 11:30N 51°54' E 004°28'0 0.0
2017-Nov-11 11:00N 51°54' E 004°28'0 0.0
2017-Nov-11 10:31N 51°54' E 004°28'0 0.0
2017-Nov-11 10:01N 51°54' E 004°28'0 0.0
2017-Nov-11 09:31N 51°54' E 004°28'0 0.0
2017-Nov-11 09:01N 51°54' E 004°28'0 0.0
2017-Nov-11 08:31N 51°54' E 004°28'0 0.0
2017-Nov-11 08:01N 51°54' E 004°28'0 0.0
2017-Nov-11 07:30N 51°54' E 004°28'0 0.0
2017-Nov-11 07:01N 51°54' E 004°28'0 0.0
2017-Nov-11 06:30N 51°54' E 004°28'0 0.0
2017-Nov-11 06:00N 51°54' E 004°28'0 0.0
2017-Nov-11 05:30N 51°54' E 004°28'0 0.0
2017-Nov-11 05:01N 51°54' E 004°28'0 0.0
2017-Nov-11 04:31N 51°54' E 004°28'0 0.0
2017-Nov-11 04:01N 51°54' E 004°28'0 0.0
2017-Nov-11 03:30N 51°54' E 004°28'0 0.0
2017-Nov-11 03:01N 51°54' E 004°28'0 0.0
2017-Nov-11 02:30N 51°54' E 004°28'0 0.0
2017-Nov-11 02:01N 51°54' E 004°28'0 0.0
2017-Nov-11 01:30N 51°54' E 004°28'0 0.0
2017-Nov-11 01:00N 51°54' E 004°28'0 0.0
2017-Nov-11 00:30N 51°54' E 004°28'0 0.0
2017-Nov-11 00:01N 51°54' E 004°28'0 0.0
2017-Nov-10 23:31N 51°54' E 004°28'0 0.0
2017-Nov-10 23:01N 51°54' E 004°28'0 0.0
2017-Nov-10 22:30N 51°54' E 004°28'0 0.0
2017-Nov-10 22:01N 51°54' E 004°28'0 0.0
2017-Nov-10 21:31N 51°54' E 004°28'0 0.0
2017-Nov-10 21:01N 51°54' E 004°28'0 0.0
2017-Nov-10 20:30N 51°54' E 004°28'0 0.0
2017-Nov-10 20:01N 51°54' E 004°28'0 0.0
2017-Nov-10 19:30N 51°54' E 004°28'0 0.0
2017-Nov-10 19:01N 51°54' E 004°28'0 0.0
2017-Nov-10 18:31N 51°54' E 004°28'0 0.0
2017-Nov-10 18:01N 51°54' E 004°28'0 0.0
2017-Nov-10 17:31N 51°54' E 004°28'0 0.0
2017-Nov-10 17:01N 51°54' E 004°28'0 0.1
2017-Nov-10 16:31N 51°54' E 004°28'4 7.8
2017-Nov-10 16:01N 51°54' E 004°22'3 6.7
2017-Nov-10 15:31N 51°53' E 004°17'0 0.0
2017-Nov-10 15:00N 51°53' E 004°17'0 0.0
2017-Nov-10 14:31N 51°53' E 004°17'0 0.0
2017-Nov-10 14:01N 51°53' E 004°17'0 0.0
2017-Nov-10 13:30N 51°53' E 004°17'0 0.0
2017-Nov-10 13:01N 51°53' E 004°17'0 0.0
2017-Nov-10 12:31N 51°53' E 004°17'0 0.0
2017-Nov-10 12:01N 51°53' E 004°17'0 0.0
2017-Nov-10 11:31N 51°53' E 004°17'0 0.0
2017-Nov-10 11:01N 51°53' E 004°17'0 0.0
2017-Nov-10 10:30N 51°53' E 004°17'0 0.0
2017-Nov-10 10:00N 51°53' E 004°17'0 0.0
2017-Nov-10 09:31N 51°53' E 004°17'0 0.0
2017-Nov-10 09:00N 51°53' E 004°17'0 0.0
2017-Nov-10 08:30N 51°53' E 004°17'0 0.0
2017-Nov-10 08:01N 51°53' E 004°17'0 0.0
2017-Nov-10 07:30N 51°53' E 004°17'0 0.0
2017-Nov-10 07:00N 51°53' E 004°17'0 0.0
2017-Nov-10 06:30N 51°53' E 004°17'0 0.0
2017-Nov-10 06:01N 51°53' E 004°17'0 0.0
2017-Nov-10 05:31N 51°53' E 004°17'0 0.0
2017-Nov-10 05:01N 51°53' E 004°17'0 0.0
2017-Nov-10 04:31N 51°53' E 004°17'0 0.0
2017-Nov-10 04:01N 51°53' E 004°17'0 0.0
2017-Nov-10 03:30N 51°53' E 004°17'0 0.0
2017-Nov-10 03:01N 51°53' E 004°17'0 0.0
2017-Nov-10 02:31N 51°53' E 004°17'0 0.0
2017-Nov-10 02:01N 51°53' E 004°17'0 0.0
2017-Nov-10 01:31N 51°53' E 004°17'0 0.0
2017-Nov-10 01:01N 51°53' E 004°17'0 0.0
2017-Nov-10 00:31N 51°53' E 004°17'0 0.0
2017-Nov-10 00:00N 51°53' E 004°17'0 0.0
2017-Nov-09 23:30N 51°53' E 004°17'0 0.0
2017-Nov-09 23:00N 51°53' E 004°17'0 0.0
2017-Nov-09 22:31N 51°53' E 004°17'0 0.0
2017-Nov-09 22:00N 51°53' E 004°17'0 0.0
2017-Nov-09 21:31N 51°53' E 004°17'0 0.0
2017-Nov-09 21:00N 51°53' E 004°17'0 0.0
2017-Nov-09 20:31N 51°53' E 004°17'0 0.0
2017-Nov-09 20:00N 51°53' E 004°17'0 0.0
2017-Nov-09 19:31N 51°53' E 004°17'0 0.0
2017-Nov-09 19:01N 51°53' E 004°17'0 0.0
2017-Nov-09 18:29N 51°53' E 004°17'0 0.0
2017-Nov-09 17:56N 51°53' E 004°17'0 0.0
2017-Nov-09 17:29N 51°53' E 004°17'0 0.0
2017-Nov-09 16:59N 51°53' E 004°17'0 0.0
2017-Nov-09 16:29N 51°53' E 004°17'0 0.0
2017-Nov-09 15:59N 51°53' E 004°17'0 0.0
2017-Nov-09 15:29N 51°53' E 004°17'0 0.0
2017-Nov-09 14:59N 51°53' E 004°17'0 0.0
2017-Nov-09 14:29N 51°53' E 004°17'0 0.0
2017-Nov-09 13:56N 51°53' E 004°17'0 0.0
2017-Nov-09 13:29N 51°53' E 004°17'0 0.0
2017-Nov-09 13:00N 51°53' E 004°17'1 1.1
2017-Nov-09 12:30N 51°53' E 004°17'3 5.9
2017-Nov-09 12:00N 51°55' E 004°14'4 9.0
2017-Nov-09 11:30N 51°58' E 004°08'4 8.5
2017-Nov-09 11:00N 51°59' E 004°02'5 9.4
2017-Nov-09 10:30N 52°00' E 003°54'5 9.5
2017-Nov-09 10:00N 51°59' E 003°47'610.3
2017-Nov-09 09:24N 51°57' E 003°37'3611.1
2017-Nov-09 06:06N 51°46' E 002°41'111.9
2017-Nov-09 06:00N 51°45' E 002°39'1011.9
2017-Nov-09 05:09N 51°38' E 002°28'212.1
2017-Nov-09 04:58N 51°36' E 002°26'612.3
2017-Nov-09 04:29N 51°32' E 002°19'611.9
2017-Nov-09 04:00N 51°27' E 002°15'611.8
2017-Nov-09 03:30N 51°22' E 002°10'611.8
2017-Nov-09 03:00N 51°16' E 002°06'611.9
2017-Nov-09 02:30N 51°13' E 001°59'611.8
2017-Nov-09 02:00N 51°10' E 001°51'611.2
2017-Nov-09 01:30N 51°06' E 001°44'510.7
2017-Nov-09 01:00N 51°01' E 001°39'5 9.9
2017-Nov-09 00:30N 50°58' E 001°34'5 9.1
2017-Nov-08 23:58N 50°54' E 001°29'107 8.4
2017-Nov-08 11:19N 50°06' W 001°00'412.5
2017-Nov-08 11:00N 50°05' W 001°06'1212.8
2017-Nov-08 10:03N 50°01' W 001°25'112.9
2017-Nov-08 09:59N 50°01' W 001°26'612.8
2017-Nov-08 09:30N 49°60' W 001°35'612.4
2017-Nov-08 09:00N 49°59' W 001°45'612.0
2017-Nov-08 08:30N 49°57' W 001°54'611.3
2017-Nov-08 08:00N 49°56' W 002°02'  
Track history (hours):
 
Tides and Currents Weather Stations Pressure Air Temp Water Temp Dewpoint Dewpoint Depression Visibility Wind Speed Wind Dir Waves Ship Positions

Velserdijk

Last reported at 2017-Nov-16 06:44 UTC. Time now 2017-Nov-19 05:04 UTC.
Position N 49°53' W 003°11'.

; draft 6.2 m.

Type: Cargo ship. MMSI: 244865000.

Date/timePositionNaut miles runAvg speedWind from/ knotsBaromVisibWave heightAir tempDewpointWater temp
2017-Nov-16 06:44N 49°53' W 003°11'7 8.5
2017-Nov-16 05:56N 49°57' W 003°02'4 8.2
2017-Nov-16 05:30N 49°59' W 002°58'4 8.1
2017-Nov-16 05:00N 50°01' W 002°52'4 8.3
2017-Nov-16 04:30N 50°02' W 002°46'4010.6
2017-Nov-16 00:41N 50°13' W 001°45'212.9
2017-Nov-16 00:30N 50°14' W 001°41'812.9
2017-Nov-15 23:51N 50°16' W 001°29'4610.5
2017-Nov-15 19:26N 50°29' W 000°19'7 8.2
2017-Nov-15 18:38N 50°30' W 000°09'1 8.3
2017-Nov-15 18:30N 50°31' W 000°08'4 8.4
2017-Nov-15 18:00N 50°32' W 000°01'4 8.5
2017-Nov-15 17:30N 50°33' E 000°05'4 8.8
2017-Nov-15 17:00N 50°34' E 000°12'5 9.4
2017-Nov-15 16:30N 50°36' E 000°19'510.1
2017-Nov-15 16:00N 50°37' E 000°27'510.6
2017-Nov-15 15:30N 50°39' E 000°35'611.1
2017-Nov-15 15:00N 50°42' E 000°42'611.2
2017-Nov-15 14:30N 50°45' E 000°49'2110.3
2017-Nov-15 12:30N 50°58' E 001°15'10 8.7
2017-Nov-15 11:22N 51°04' E 001°27'3 8.0
2017-Nov-15 10:57N 51°06' E 001°30'3 7.4
2017-Nov-15 10:30N 51°09' E 001°34'4 7.6
2017-Nov-15 10:00N 51°11' E 001°39'4 8.0
2017-Nov-15 09:30N 51°13' E 001°44'4 8.8
2017-Nov-15 09:00N 51°17' E 001°48'5 9.6
2017-Nov-15 08:30N 51°21' E 001°52'510.4
2017-Nov-15 08:00N 51°26' E 001°56'611.1
2017-Nov-15 07:30N 51°30' E 002°03'611.4
2017-Nov-15 07:00N 51°34' E 002°09'611.4
2017-Nov-15 06:28N 51°38' E 002°15'58 9.7
2017-Nov-15 00:31N 52°03' E 003°40'1 8.5
2017-Nov-15 00:25N 52°03' E 003°41'3 8.2
2017-Nov-15 00:00N 52°03' E 003°47'4 8.2
2017-Nov-14 23:30N 52°03' E 003°54'4 7.1
2017-Nov-14 23:00N 52°01' E 003°58'4 9.0
2017-Nov-14 22:30N 51°59' E 004°05'5 9.2
2017-Nov-14 22:00N 51°57' E 004°11'5 9.6
2017-Nov-14 21:30N 51°54' E 004°18'4 8.5
2017-Nov-14 21:00N 51°53' E 004°24'0 0.6
2017-Nov-14 20:30N 51°53' E 004°25'0 0.0
2017-Nov-14 20:00N 51°53' E 004°25'0 0.0
2017-Nov-14 19:30N 51°53' E 004°25'0 0.0
2017-Nov-14 19:00N 51°53' E 004°25'0 0.0
2017-Nov-14 18:30N 51°53' E 004°25'0 0.0
2017-Nov-14 18:00N 51°53' E 004°25'0 0.0
2017-Nov-14 17:30N 51°53' E 004°25'0 0.0
2017-Nov-14 17:00N 51°53' E 004°25'0 0.0
2017-Nov-14 16:30N 51°53' E 004°25'0 0.0
2017-Nov-14 16:00N 51°53' E 004°25'0 0.0
2017-Nov-14 15:30N 51°53' E 004°25'0 0.0
2017-Nov-14 15:00N 51°53' E 004°25'0 0.0
2017-Nov-14 14:30N 51°53' E 004°25'0 0.0
2017-Nov-14 14:00N 51°53' E 004°25'0 0.0
2017-Nov-14 13:30N 51°53' E 004°25'0 0.0
2017-Nov-14 13:00N 51°53' E 004°25'0 0.0
2017-Nov-14 12:30N 51°53' E 004°25'0 0.0
2017-Nov-14 12:00N 51°53' E 004°25'0 0.0
2017-Nov-14 11:30N 51°53' E 004°25'0 0.0
2017-Nov-14 11:00N 51°53' E 004°25'0 0.0
2017-Nov-14 10:30N 51°53' E 004°25'0 0.0
2017-Nov-14 10:00N 51°53' E 004°25'0 0.0
2017-Nov-14 09:30N 51°53' E 004°25'0 0.0
2017-Nov-14 09:00N 51°53' E 004°25'0 0.0
2017-Nov-14 08:30N 51°53' E 004°25'0 0.0
2017-Nov-14 08:00N 51°53' E 004°25'0 0.0
2017-Nov-14 07:30N 51°53' E 004°25'0 0.0
2017-Nov-14 07:00N 51°53' E 004°25'0 0.0
2017-Nov-14 06:30N 51°53' E 004°25'0 0.0
2017-Nov-14 06:00N 51°53' E 004°25'0 0.0
2017-Nov-14 05:30N 51°53' E 004°25'0 0.0
2017-Nov-14 05:00N 51°53' E 004°25'0 0.0
2017-Nov-14 04:30N 51°53' E 004°25'0 0.0
2017-Nov-14 04:00N 51°53' E 004°25'0 0.0
2017-Nov-14 03:30N 51°53' E 004°25'0 0.0
2017-Nov-14 03:00N 51°53' E 004°25'0 0.0
2017-Nov-14 02:30N 51°53' E 004°25'0 0.0
2017-Nov-14 02:00N 51°53' E 004°25'0 0.0
2017-Nov-14 01:30N 51°53' E 004°25'0 0.0
2017-Nov-14 01:00N 51°53' E 004°25'0 0.0
2017-Nov-14 00:30N 51°53' E 004°25'0 0.0
2017-Nov-14 00:00N 51°53' E 004°25'0 0.0
2017-Nov-13 23:30N 51°53' E 004°25'0 0.0
2017-Nov-13 23:00N 51°53' E 004°25'0 0.0
2017-Nov-13 22:30N 51°53' E 004°25'0 0.0
2017-Nov-13 22:00N 51°53' E 004°25'0 0.0
2017-Nov-13 02:00N 51°53' E 004°25'0 0.0
2017-Nov-13 01:30N 51°53' E 004°25'0 0.0
2017-Nov-13 01:00N 51°53' E 004°25'0 0.0
2017-Nov-13 00:30N 51°53' E 004°25'0 0.0
2017-Nov-13 00:00N 51°53' E 004°25'0 0.0
2017-Nov-12 23:30N 51°53' E 004°25'0 0.0
2017-Nov-12 23:00N 51°53' E 004°25'1 2.4
2017-Nov-12 22:30N 51°54' E 004°25'2 4.0
2017-Nov-12 22:00N 51°54' E 004°28'0 0.0
2017-Nov-12 21:30N 51°54' E 004°28'0 0.0
2017-Nov-12 21:00N 51°54' E 004°28'0 0.0
2017-Nov-12 20:31N 51°54' E 004°28'0 0.0
2017-Nov-12 20:01N 51°54' E 004°28'0 0.0
2017-Nov-12 19:31N 51°54' E 004°28'0 0.0
2017-Nov-12 19:01N 51°54' E 004°28'0 0.0
2017-Nov-12 18:31N 51°54' E 004°28'0 0.0
2017-Nov-12 18:01N 51°54' E 004°28'0 0.0
2017-Nov-12 17:31N 51°54' E 004°28'0 0.0
2017-Nov-12 17:00N 51°54' E 004°28'0 0.0
2017-Nov-12 16:30N 51°54' E 004°28'0 0.0
2017-Nov-12 16:01N 51°54' E 004°28'0 0.0
2017-Nov-12 15:31N 51°54' E 004°28'0 0.0
2017-Nov-12 15:01N 51°54' E 004°28'0 0.0
2017-Nov-12 14:30N 51°54' E 004°28'0 0.0
2017-Nov-12 14:00N 51°54' E 004°28'0 0.0
2017-Nov-12 13:30N 51°54' E 004°28'0 0.0
2017-Nov-12 13:00N 51°54' E 004°28'0 0.0
2017-Nov-12 12:30N 51°54' E 004°28'0 0.0
2017-Nov-12 12:01N 51°54' E 004°28'0 0.0
2017-Nov-12 11:30N 51°54' E 004°28'0 0.0
2017-Nov-12 11:00N 51°54' E 004°28'0 0.0
2017-Nov-12 10:31N 51°54' E 004°28'0 0.0
2017-Nov-12 10:01N 51°54' E 004°28'0 0.0
2017-Nov-12 09:31N 51°54' E 004°28'0 0.0
2017-Nov-12 09:01N 51°54' E 004°28'0 0.0
2017-Nov-12 08:31N 51°54' E 004°28'0 0.0
2017-Nov-12 08:01N 51°54' E 004°28'0 0.0
2017-Nov-12 07:30N 51°54' E 004°28'0 0.0
2017-Nov-12 07:01N 51°54' E 004°28'0 0.0
2017-Nov-12 06:30N 51°54' E 004°28'0 0.0
2017-Nov-12 06:01N 51°54' E 004°28'0 0.0
2017-Nov-12 05:30N 51°54' E 004°28'0 0.0
2017-Nov-12 05:01N 51°54' E 004°28'0 0.0
2017-Nov-12 04:31N 51°54' E 004°28'0 0.0
2017-Nov-12 04:01N 51°54' E 004°28'0 0.0
2017-Nov-12 03:30N 51°54' E 004°28'0 0.0
2017-Nov-12 03:01N 51°54' E 004°28'0 0.0
2017-Nov-12 02:30N 51°54' E 004°28'0 0.0
2017-Nov-12 02:01N 51°54' E 004°28'0 0.0
2017-Nov-12 01:30N 51°54' E 004°28'0 0.0
2017-Nov-12 01:00N 51°54' E 004°28'0 0.0
2017-Nov-12 00:31N 51°54' E 004°28'0 0.0
2017-Nov-12 00:01N 51°54' E 004°28'0 0.0
2017-Nov-11 23:30N 51°54' E 004°28'0 0.0
2017-Nov-11 23:01N 51°54' E 004°28'0 0.0
2017-Nov-11 22:31N 51°54' E 004°28'0 0.0
2017-Nov-11 22:01N 51°54' E 004°28'0 0.0
2017-Nov-11 21:31N 51°54' E 004°28'0 0.0
2017-Nov-11 21:00N 51°54' E 004°28'0 0.0
2017-Nov-11 20:31N 51°54' E 004°28'0 0.0
2017-Nov-11 20:00N 51°54' E 004°28'0 0.0
2017-Nov-11 19:30N 51°54' E 004°28'0 0.0
2017-Nov-11 19:01N 51°54' E 004°28'0 0.0
2017-Nov-11 18:30N 51°54' E 004°28'0 0.0
2017-Nov-11 18:01N 51°54' E 004°28'0 0.0
2017-Nov-11 17:31N 51°54' E 004°28'0 0.0
2017-Nov-11 17:01N 51°54' E 004°28'0 0.0
2017-Nov-11 16:30N 51°54' E 004°28'0 0.0
2017-Nov-11 16:00N 51°54' E 004°28'0 0.0
2017-Nov-11 15:31N 51°54' E 004°28'0 0.0
2017-Nov-11 15:00N 51°54' E 004°28'0 0.0
2017-Nov-11 14:30N 51°54' E 004°28'0 0.0
2017-Nov-11 14:01N 51°54' E 004°28'0 0.0
2017-Nov-11 13:31N 51°54' E 004°28'0 0.0
2017-Nov-11 13:01N 51°54' E 004°28'0 0.0
2017-Nov-11 12:30N 51°54' E 004°28'0 0.0
2017-Nov-11 12:01N 51°54' E 004°28'0 0.0
2017-Nov-11 11:30N 51°54' E 004°28'0 0.0
2017-Nov-11 11:00N 51°54' E 004°28'0 0.0
2017-Nov-11 10:31N 51°54' E 004°28'0 0.0
2017-Nov-11 10:01N 51°54' E 004°28'0 0.0
2017-Nov-11 09:31N 51°54' E 004°28'0 0.0
2017-Nov-11 09:01N 51°54' E 004°28'0 0.0
2017-Nov-11 08:31N 51°54' E 004°28'0 0.0
2017-Nov-11 08:01N 51°54' E 004°28'0 0.0
2017-Nov-11 07:30N 51°54' E 004°28'0 0.0
2017-Nov-11 07:01N 51°54' E 004°28'0 0.0
2017-Nov-11 06:30N 51°54' E 004°28'0 0.0
2017-Nov-11 06:00N 51°54' E 004°28'0 0.0
2017-Nov-11 05:30N 51°54' E 004°28'0 0.0
2017-Nov-11 05:01N 51°54' E 004°28'0 0.0
2017-Nov-11 04:31N 51°54' E 004°28'0 0.0
2017-Nov-11 04:01N 51°54' E 004°28'0 0.0
2017-Nov-11 03:30N 51°54' E 004°28'0 0.0
2017-Nov-11 03:01N 51°54' E 004°28'0 0.0
2017-Nov-11 02:30N 51°54' E 004°28'0 0.0
2017-Nov-11 02:01N 51°54' E 004°28'0 0.0
2017-Nov-11 01:30N 51°54' E 004°28'0 0.0
2017-Nov-11 01:00N 51°54' E 004°28'0 0.0
2017-Nov-11 00:30N 51°54' E 004°28'0 0.0
2017-Nov-11 00:01N 51°54' E 004°28'0 0.0
2017-Nov-10 23:31N 51°54' E 004°28'0 0.0
2017-Nov-10 23:01N 51°54' E 004°28'0 0.0
2017-Nov-10 22:30N 51°54' E 004°28'0 0.0
2017-Nov-10 22:01N 51°54' E 004°28'0 0.0
2017-Nov-10 21:31N 51°54' E 004°28'0 0.0
2017-Nov-10 21:01N 51°54' E 004°28'0 0.0
2017-Nov-10 20:30N 51°54' E 004°28'0 0.0
2017-Nov-10 20:01N 51°54' E 004°28'0 0.0
2017-Nov-10 19:30N 51°54' E 004°28'0 0.0
2017-Nov-10 19:01N 51°54' E 004°28'0 0.0
2017-Nov-10 18:31N 51°54' E 004°28'0 0.0
2017-Nov-10 18:01N 51°54' E 004°28'0 0.0
2017-Nov-10 17:31N 51°54' E 004°28'0 0.0
2017-Nov-10 17:01N 51°54' E 004°28'0 0.1
2017-Nov-10 16:31N 51°54' E 004°28'4 7.8
2017-Nov-10 16:01N 51°54' E 004°22'3 6.7
2017-Nov-10 15:31N 51°53' E 004°17'0 0.0
2017-Nov-10 15:00N 51°53' E 004°17'0 0.0
2017-Nov-10 14:31N 51°53' E 004°17'0 0.0
2017-Nov-10 14:01N 51°53' E 004°17'0 0.0
2017-Nov-10 13:30N 51°53' E 004°17'0 0.0
2017-Nov-10 13:01N 51°53' E 004°17'0 0.0
2017-Nov-10 12:31N 51°53' E 004°17'0 0.0
2017-Nov-10 12:01N 51°53' E 004°17'0 0.0
2017-Nov-10 11:31N 51°53' E 004°17'0 0.0
2017-Nov-10 11:01N 51°53' E 004°17'0 0.0
2017-Nov-10 10:30N 51°53' E 004°17'0 0.0
2017-Nov-10 10:00N 51°53' E 004°17'0 0.0
2017-Nov-10 09:31N 51°53' E 004°17'0 0.0
2017-Nov-10 09:00N 51°53' E 004°17'0 0.0
2017-Nov-10 08:30N 51°53' E 004°17'0 0.0
2017-Nov-10 08:01N 51°53' E 004°17'0 0.0
2017-Nov-10 07:30N 51°53' E 004°17'0 0.0
2017-Nov-10 07:00N 51°53' E 004°17'0 0.0
2017-Nov-10 06:30N 51°53' E 004°17'0 0.0
2017-Nov-10 06:01N 51°53' E 004°17'0 0.0
2017-Nov-10 05:31N 51°53' E 004°17'0 0.0
2017-Nov-10 05:01N 51°53' E 004°17'0 0.0
2017-Nov-10 04:31N 51°53' E 004°17'0 0.0
2017-Nov-10 04:01N 51°53' E 004°17'0 0.0
2017-Nov-10 03:30N 51°53' E 004°17'0 0.0
2017-Nov-10 03:01N 51°53' E 004°17'0 0.0
2017-Nov-10 02:31N 51°53' E 004°17'0 0.0
2017-Nov-10 02:01N 51°53' E 004°17'0 0.0
2017-Nov-10 01:31N 51°53' E 004°17'0 0.0
2017-Nov-10 01:01N 51°53' E 004°17'0 0.0
2017-Nov-10 00:31N 51°53' E 004°17'0 0.0
2017-Nov-10 00:00N 51°53' E 004°17'0 0.0
2017-Nov-09 23:30N 51°53' E 004°17'0 0.0
2017-Nov-09 23:00N 51°53' E 004°17'0 0.0
2017-Nov-09 22:31N 51°53' E 004°17'0 0.0
2017-Nov-09 22:00N 51°53' E 004°17'0 0.0
2017-Nov-09 21:31N 51°53' E 004°17'0 0.0
2017-Nov-09 21:00N 51°53' E 004°17'0 0.0
2017-Nov-09 20:31N 51°53' E 004°17'0 0.0
2017-Nov-09 20:00N 51°53' E 004°17'0 0.0
2017-Nov-09 19:31N 51°53' E 004°17'0 0.0
2017-Nov-09 19:01N 51°53' E 004°17'0 0.0
2017-Nov-09 18:29N 51°53' E 004°17'0 0.0
2017-Nov-09 17:56N 51°53' E 004°17'0 0.0
2017-Nov-09 17:29N 51°53' E 004°17'0 0.0
2017-Nov-09 16:59N 51°53' E 004°17'0 0.0
2017-Nov-09 16:29N 51°53' E 004°17'0 0.0
2017-Nov-09 15:59N 51°53' E 004°17'0 0.0
2017-Nov-09 15:29N 51°53' E 004°17'0 0.0
2017-Nov-09 14:59N 51°53' E 004°17'0 0.0
2017-Nov-09 14:29N 51°53' E 004°17'0 0.0
2017-Nov-09 13:56N 51°53' E 004°17'0 0.0
2017-Nov-09 13:29N 51°53' E 004°17'0 0.0
2017-Nov-09 13:00N 51°53' E 004°17'1 1.1
2017-Nov-09 12:30N 51°53' E 004°17'3 5.9
2017-Nov-09 12:00N 51°55' E 004°14'4 9.0
2017-Nov-09 11:30N 51°58' E 004°08'4 8.5
2017-Nov-09 11:00N 51°59' E 004°02'5 9.4
2017-Nov-09 10:30N 52°00' E 003°54'5 9.5
2017-Nov-09 10:00N 51°59' E 003°47'610.3
2017-Nov-09 09:24N 51°57' E 003°37'3611.1
2017-Nov-09 06:06N 51°46' E 002°41'111.9
2017-Nov-09 06:00N 51°45' E 002°39'1011.9
2017-Nov-09 05:09N 51°38' E 002°28'212.1
2017-Nov-09 04:58N 51°36' E 002°26'612.3
2017-Nov-09 04:29N 51°32' E 002°19'611.9
2017-Nov-09 04:00N 51°27' E 002°15'611.8
2017-Nov-09 03:30N 51°22' E 002°10'611.8
2017-Nov-09 03:00N 51°16' E 002°06'611.9
2017-Nov-09 02:30N 51°13' E 001°59'611.8
2017-Nov-09 02:00N 51°10' E 001°51'611.2
2017-Nov-09 01:30N 51°06' E 001°44'510.7
2017-Nov-09 01:00N 51°01' E 001°39'5 9.9
2017-Nov-09 00:30N 50°58' E 001°34'5 9.1
2017-Nov-08 23:58N 50°54' E 001°29'107 8.4
2017-Nov-08 11:19N 50°06' W 001°00'412.5
2017-Nov-08 11:00N 50°05' W 001°06'1212.8
2017-Nov-08 10:03N 50°01' W 001°25'112.9
2017-Nov-08 09:59N 50°01' W 001°26'612.8
2017-Nov-08 09:30N 49°60' W 001°35'612.4
2017-Nov-08 09:00N 49°59' W 001°45'612.0
2017-Nov-08 08:30N 49°57' W 001°54'611.3
2017-Nov-08 08:00N 49°56' W 002°02'  

Dump ship's entire track history